createdAt,value
2022-11-19T00:02:11.166Z,99446.88
2022-11-19T00:05:12.886Z,99444.78
2022-11-19T00:08:18.604Z,99440.31
2022-11-19T00:11:41.530Z,99436.50
2022-11-19T00:14:43.151Z,99442.28
2022-11-19T00:17:44.760Z,99441.66
2022-11-19T00:20:46.355Z,99432.09
2022-11-19T00:23:53.209Z,99429.34
2022-11-19T00:26:56.024Z,99432.22
2022-11-19T00:29:57.647Z,99435.59
2022-11-19T00:32:59.263Z,99432.59
2022-11-19T00:36:02.533Z,99426.53
2022-11-19T00:39:05.525Z,99425.50
2022-11-19T00:42:07.158Z,99430.59
2022-11-19T00:45:09.727Z,99430.47
2022-11-19T00:48:11.371Z,99427.34
2022-11-19T00:51:13.393Z,99432.28
2022-11-19T00:54:16.432Z,99435.03
2022-11-19T00:57:18.192Z,99431.00
2022-11-19T01:00:20.195Z,99424.63
2022-11-19T01:03:22.080Z,99438.72
2022-11-19T01:06:25.530Z,99445.78
2022-11-19T01:09:29.437Z,99448.94
2022-11-19T01:12:51.039Z,99446.31
2022-11-19T01:15:52.674Z,99444.00
2022-11-19T01:18:54.428Z,99445.94
2022-11-19T01:21:56.065Z,99445.56
2022-11-19T01:24:59.040Z,99457.31
2022-11-19T01:28:00.740Z,99454.41
2022-11-19T01:31:06.995Z,99454.81
2022-11-19T01:34:08.649Z,99461.53
2022-11-19T01:37:10.280Z,99457.44
2022-11-19T01:40:15.149Z,99450.72
2022-11-19T01:43:18.207Z,99454.28
2022-11-19T01:46:22.005Z,99452.72
2022-11-19T01:49:23.714Z,99450.09
2022-11-19T01:52:25.454Z,99456.53
2022-11-19T01:55:28.524Z,99448.91
2022-11-19T01:58:33.769Z,99451.94
2022-11-19T02:01:35.621Z,99454.31
2022-11-19T02:04:39.500Z,99450.53
2022-11-19T02:07:45.451Z,99446.84
2022-11-19T02:10:58.651Z,99457.94
2022-11-19T02:14:16.076Z,99456.63
2022-11-19T02:17:26.600Z,99456.47
2022-11-19T02:20:49.669Z,99453.59
2022-11-19T02:24:21.846Z,99455.69
2022-11-19T02:27:46.574Z,99447.59
2022-11-19T02:30:52.675Z,99456.56
2022-11-19T02:34:00.051Z,99452.38
2022-11-19T02:37:08.155Z,99449.28
2022-11-19T02:40:15.399Z,99451.75
2022-11-19T02:43:21.029Z,99450.97
2022-11-19T02:46:25.403Z,99456.13
2022-11-19T02:49:31.858Z,99447.22
2022-11-19T02:52:34.050Z,99450.97
2022-11-19T02:55:37.853Z,99449.28
2022-11-19T02:59:04.241Z,99451.91
2022-11-19T03:02:28.197Z,99458.94
2022-11-19T03:05:33.497Z,99451.59
2022-11-19T03:08:35.667Z,99452.94
2022-11-19T03:11:37.454Z,99460.03
2022-11-19T03:15:08.124Z,99461.88
2022-11-19T03:18:15.824Z,99465.03
2022-11-19T03:21:23.335Z,99460.28
2022-11-19T03:24:30.410Z,99464.63
2022-11-19T03:27:38.206Z,99468.91
2022-11-19T03:30:44.627Z,99464.31
2022-11-19T03:33:51.607Z,99468.13
2022-11-19T03:36:58.391Z,99480.44
2022-11-19T03:40:03.021Z,99478.09
2022-11-19T03:43:08.372Z,99476.63
2022-11-19T03:46:14.964Z,99476.25
2022-11-19T03:49:21.947Z,99479.31
2022-11-19T03:52:23.611Z,99474.97
2022-11-19T03:55:31.378Z,99476.00
2022-11-19T03:58:39.003Z,99485.41
2022-11-19T04:01:40.928Z,99482.13
2022-11-19T04:04:43.958Z,99481.72
2022-11-19T04:07:45.594Z,99490.47
2022-11-19T04:10:47.151Z,99487.53
2022-11-19T04:13:48.733Z,99485.44
2022-11-19T04:16:50.354Z,99489.97
2022-11-19T04:19:53.344Z,99490.28
2022-11-19T04:22:54.970Z,99487.34
2022-11-19T04:25:56.637Z,99490.78
2022-11-19T04:29:01.434Z,99485.25
2022-11-19T04:32:03.267Z,99493.41
2022-11-19T04:35:06.775Z,99495.81
2022-11-19T04:38:08.451Z,99501.69
2022-11-19T04:41:10.131Z,99493.72
2022-11-19T04:44:11.743Z,99500.78
2022-11-19T04:47:13.391Z,99505.03
2022-11-19T04:50:16.328Z,99504.38
2022-11-19T04:53:18.560Z,99507.84
2022-11-19T04:56:20.234Z,99520.72
2022-11-19T04:59:22.122Z,99511.97
2022-11-19T05:02:23.994Z,99520.56
2022-11-19T05:05:26.923Z,99513.53
2022-11-19T05:08:28.708Z,99514.63
2022-11-19T05:11:30.349Z,99514.31
2022-11-19T05:14:31.929Z,99526.28
2022-11-19T05:17:33.543Z,99515.84
2022-11-19T05:20:36.470Z,99514.63
2022-11-19T05:23:38.130Z,99517.72
2022-11-19T05:26:39.752Z,99511.13
2022-11-19T05:29:41.390Z,99524.03
2022-11-19T05:32:42.998Z,99528.13
2022-11-19T05:35:45.923Z,99518.22
2022-11-19T05:38:47.508Z,99522.47
2022-11-19T05:41:49.200Z,99520.03
2022-11-19T05:44:50.797Z,99529.41
2022-11-19T05:47:54.735Z,99524.97
2022-11-19T05:50:57.930Z,99522.19
2022-11-19T05:53:59.601Z,99523.28
2022-11-19T05:57:01.456Z,99527.38
2022-11-19T06:00:03.934Z,99523.22
2022-11-19T06:03:13.911Z,99536.44
2022-11-19T06:06:17.039Z,99537.94
2022-11-19T06:09:19.074Z,99539.16
2022-11-19T06:12:20.955Z,99542.25
2022-11-19T06:15:22.703Z,99548.84
2022-11-19T06:18:24.490Z,99544.56
2022-11-19T06:21:27.533Z,99540.09
2022-11-19T06:24:29.849Z,99542.25
2022-11-19T06:27:31.479Z,99542.56
2022-11-19T06:30:33.157Z,99552.84
2022-11-19T06:33:34.810Z,99547.78
2022-11-19T06:36:42.793Z,99551.78
2022-11-19T06:39:46.664Z,99552.56
2022-11-19T06:42:50.932Z,99553.75
2022-11-19T06:45:52.852Z,99554.66
2022-11-19T06:48:54.536Z,99554.06
2022-11-19T06:51:57.485Z,99550.81
2022-11-19T06:54:59.110Z,99552.38
2022-11-19T06:58:02.007Z,99556.03
2022-11-19T07:01:03.725Z,99561.09
2022-11-19T07:04:05.370Z,99569.66
2022-11-19T07:07:09.830Z,99564.94
2022-11-19T07:10:11.612Z,99560.81
2022-11-19T07:13:13.378Z,99549.91
2022-11-19T07:16:15.053Z,99562.50
2022-11-19T07:19:17.476Z,99567.25
2022-11-19T07:22:20.757Z,99572.66
2022-11-19T07:25:22.402Z,99572.97
2022-11-19T07:28:24.019Z,99569.25
2022-11-19T07:31:25.619Z,99581.38
2022-11-19T07:34:27.313Z,99575.06
2022-11-19T07:37:30.437Z,99586.47
2022-11-19T07:40:33.371Z,99584.78
2022-11-19T07:43:36.327Z,99588.41
2022-11-19T07:46:37.895Z,99598.38
2022-11-19T07:49:39.597Z,99601.13
2022-11-19T07:52:42.696Z,99602.97
2022-11-19T07:55:47.019Z,99609.28
2022-11-19T07:58:48.700Z,99615.84
2022-11-19T08:01:50.478Z,99612.91
2022-11-19T08:04:52.141Z,99610.94
2022-11-19T08:07:55.131Z,99613.81
2022-11-19T08:10:56.761Z,99614.28
2022-11-19T08:14:01.074Z,99617.84
2022-11-19T08:17:21.534Z,99615.69
2022-11-19T08:20:23.191Z,99617.00
2022-11-19T08:23:26.203Z,99612.19
2022-11-19T08:26:27.877Z,99616.75
2022-11-19T08:29:29.543Z,99623.47
2022-11-19T08:32:31.171Z,99627.13
2022-11-19T08:35:32.844Z,99630.66
2022-11-19T08:38:38.651Z,99631.44
2022-11-19T08:41:59.565Z,99630.38
2022-11-19T08:45:01.133Z,99643.94
2022-11-19T08:48:05.046Z,99648.09
2022-11-19T08:51:10.078Z,99642.38
2022-11-19T08:54:13.330Z,99643.50
2022-11-19T08:57:14.990Z,99643.66
2022-11-19T09:00:17.957Z,99638.06
2022-11-19T09:03:19.581Z,99643.13
2022-11-19T09:06:21.259Z,99645.59
2022-11-19T09:09:24.272Z,99648.69
2022-11-19T09:12:25.952Z,99655.03
2022-11-19T09:15:28.179Z,99670.44
2022-11-19T09:18:31.430Z,99681.09
2022-11-19T09:21:32.999Z,99683.91
2022-11-19T09:24:35.992Z,99683.06
2022-11-19T09:27:38.214Z,99693.03
2022-11-19T09:30:39.913Z,99697.47
2022-11-19T09:33:44.398Z,99703.06
2022-11-19T09:36:46.062Z,99701.06
2022-11-19T09:39:49.111Z,99708.00
2022-11-19T09:43:02.675Z,99709.53
2022-11-19T09:46:14.609Z,99716.91
2022-11-19T09:49:23.471Z,99718.81
2022-11-19T09:52:28.483Z,99721.25
2022-11-19T09:55:35.425Z,99721.88
2022-11-19T09:58:41.365Z,99724.91
2022-11-19T10:01:43.078Z,99727.94
2022-11-19T10:04:45.426Z,99717.69
2022-11-19T10:07:59.621Z,99706.41
2022-11-19T10:11:20.385Z,99699.44
2022-11-19T10:14:39.773Z,99693.41
2022-11-19T10:17:53.010Z,99703.22
2022-11-19T10:21:04.249Z,99699.88
2022-11-19T10:24:17.759Z,99700.72
2022-11-19T10:27:29.653Z,99702.47
2022-11-19T10:30:31.503Z,99707.28
2022-11-19T10:33:37.381Z,99705.28
2022-11-19T10:36:43.012Z,99712.72
2022-11-19T10:39:50.000Z,99720.75
2022-11-19T10:42:57.510Z,99716.56
2022-11-19T10:46:02.823Z,99720.78
2022-11-19T10:49:09.050Z,99722.22
2022-11-19T10:52:24.772Z,99715.97
2022-11-19T10:55:30.275Z,99720.41
2022-11-19T10:58:39.077Z,99709.72
2022-11-19T11:01:44.524Z,99718.63
2022-11-19T11:05:01.005Z,99715.63
2022-11-19T11:08:11.264Z,99728.56
2022-11-19T11:11:13.066Z,99722.53
2022-11-19T11:14:36.587Z,99717.56
2022-11-19T11:17:38.912Z,99721.44
2022-11-19T11:20:46.454Z,99724.63
2022-11-19T11:23:51.169Z,99728.09
2022-11-19T11:27:18.121Z,99733.25
2022-11-19T11:30:21.217Z,99727.72
2022-11-19T11:33:32.445Z,99732.41
2022-11-19T11:36:36.089Z,99729.00
2022-11-19T11:39:40.222Z,99728.78
2022-11-19T11:42:41.860Z,99735.06
2022-11-19T11:45:44.904Z,99733.25
2022-11-19T11:48:49.181Z,99726.03
2022-11-19T11:52:01.153Z,99724.84
2022-11-19T11:55:05.037Z,99726.03
2022-11-19T11:58:25.296Z,99730.56
2022-11-19T12:01:28.261Z,99737.03
2022-11-19T12:04:30.204Z,99729.69
2022-11-19T12:07:58.150Z,99726.97
2022-11-19T12:11:07.466Z,99737.78
2022-11-19T12:14:11.339Z,99735.44
2022-11-19T12:17:37.590Z,99743.88
2022-11-19T12:20:47.723Z,99751.34
2022-11-19T12:24:06.496Z,99758.22
2022-11-19T12:27:19.886Z,99759.19
2022-11-19T12:30:23.294Z,99763.13
2022-11-19T12:33:39.650Z,99763.28
2022-11-19T12:36:55.125Z,99759.00
2022-11-19T12:40:04.019Z,99746.50
2022-11-19T12:43:15.664Z,99752.03
2022-11-19T12:46:28.223Z,99751.69
2022-11-19T12:49:50.513Z,99753.22
2022-11-19T12:53:12.570Z,99747.00
2022-11-19T12:56:26.044Z,99746.75
2022-11-19T12:59:41.371Z,99744.38
2022-11-19T13:02:58.969Z,99752.47
2022-11-19T13:06:08.733Z,99752.94
2022-11-19T13:09:18.357Z,99746.88
2022-11-19T13:12:24.594Z,99744.22
2022-11-19T13:15:31.531Z,99741.38
2022-11-19T13:18:36.729Z,99739.22
2022-11-19T13:21:46.174Z,99741.91
2022-11-19T13:24:52.315Z,99738.34
2022-11-19T13:27:56.897Z,99739.53
2022-11-19T13:31:02.823Z,99737.75
2022-11-19T13:34:16.131Z,99746.84
2022-11-19T13:37:31.086Z,99753.03
2022-11-19T13:40:38.606Z,99750.34
2022-11-19T13:43:59.610Z,99750.94
2022-11-19T13:47:01.901Z,99750.38
2022-11-19T13:50:11.422Z,99755.00
2022-11-19T13:53:21.422Z,99753.94
2022-11-19T13:56:23.395Z,99753.28
2022-11-19T13:59:33.544Z,99750.72
2022-11-19T14:02:59.879Z,99756.66
2022-11-19T14:06:27.833Z,99758.81
2022-11-19T14:09:38.732Z,99760.91
2022-11-19T14:13:06.924Z,99760.31
2022-11-19T14:16:40.327Z,99771.56
2022-11-19T14:20:07.595Z,99769.72
2022-11-19T14:23:27.895Z,99770.81
2022-11-19T14:27:17.096Z,99777.03
2022-11-19T14:30:41.204Z,99773.09
2022-11-19T14:34:03.898Z,99772.31
2022-11-19T14:37:16.111Z,99771.16
2022-11-19T14:40:21.133Z,99779.28
2022-11-19T14:43:42.899Z,99779.81
2022-11-19T14:46:48.862Z,99777.47
2022-11-19T14:49:53.924Z,99774.34
2022-11-19T14:52:57.682Z,99787.59
2022-11-19T14:56:01.448Z,99793.13
2022-11-19T14:59:16.274Z,99792.78
2022-11-19T15:02:25.032Z,99791.41
2022-11-19T15:05:33.113Z,99791.69
2022-11-19T15:08:47.972Z,99788.97
2022-11-19T15:12:00.267Z,99793.75
2022-11-19T15:15:35.349Z,99791.84
2022-11-19T15:19:22.000Z,99793.09
2022-11-19T15:22:44.652Z,99799.81
2022-11-19T15:25:59.783Z,99794.13
2022-11-19T15:29:10.282Z,99797.44
2022-11-19T15:32:23.073Z,99792.63
2022-11-19T15:35:47.857Z,99795.03
2022-11-19T15:38:57.479Z,99788.94
2022-11-19T15:42:04.402Z,99800.19
2022-11-19T15:45:15.896Z,99796.81
2022-11-19T15:48:23.708Z,99796.63
2022-11-19T15:51:25.750Z,99808.94
2022-11-19T15:54:30.354Z,99811.63
2022-11-19T15:57:32.033Z,99806.47
2022-11-19T16:00:44.564Z,99796.97
2022-11-19T16:03:47.504Z,99796.34
2022-11-19T16:06:51.323Z,99792.53
2022-11-19T16:09:55.166Z,99803.31
2022-11-19T16:13:17.776Z,99799.78
2022-11-19T16:16:42.758Z,99802.75
2022-11-19T16:19:44.445Z,99797.66
2022-11-19T16:22:51.171Z,99803.13
2022-11-19T16:25:54.474Z,99812.84
2022-11-19T16:28:56.352Z,99817.34
2022-11-19T16:32:01.992Z,99818.06
2022-11-19T16:35:10.867Z,99820.09
2022-11-19T16:38:17.345Z,99826.03
2022-11-19T16:41:41.034Z,99825.47
2022-11-19T16:44:44.401Z,99836.66
2022-11-19T16:47:52.063Z,99827.09
2022-11-19T16:50:53.805Z,99832.53
2022-11-19T16:53:55.509Z,99836.41
2022-11-19T16:56:58.641Z,99840.22
2022-11-19T17:00:04.335Z,99834.81
2022-11-19T17:03:19.367Z,99841.22
2022-11-19T17:06:25.814Z,99839.81
2022-11-19T17:09:41.509Z,99829.34
2022-11-19T17:12:51.621Z,99841.94
2022-11-19T17:15:53.430Z,99833.81
2022-11-19T17:18:55.096Z,99836.00
2022-11-19T17:21:59.764Z,99845.41
2022-11-19T17:25:03.068Z,99839.88
2022-11-19T17:28:06.316Z,99838.78
2022-11-19T17:31:15.917Z,99846.72
2022-11-19T17:34:29.659Z,99845.97
2022-11-19T17:37:31.417Z,99850.78
2022-11-19T17:40:33.118Z,99845.63
2022-11-19T17:43:56.481Z,99849.25
2022-11-19T17:46:58.695Z,99862.38
2022-11-19T17:50:00.323Z,99856.47
2022-11-19T17:53:02.392Z,99862.41
2022-11-19T17:56:04.895Z,99864.63
2022-11-19T17:59:08.046Z,99872.00
2022-11-19T18:02:14.407Z,99866.84
2022-11-19T18:05:19.705Z,99861.91
2022-11-19T18:08:21.247Z,99873.56
2022-11-19T18:11:24.789Z,99878.81
2022-11-19T18:14:28.076Z,99871.94
2022-11-19T18:17:29.726Z,99874.38
2022-11-19T18:20:31.485Z,99875.78
2022-11-19T18:23:33.124Z,99878.25
2022-11-19T18:26:34.821Z,99880.66
2022-11-19T18:29:38.059Z,99878.97
2022-11-19T18:32:39.692Z,99876.94
2022-11-19T18:35:41.332Z,99884.38
2022-11-19T18:38:43.587Z,99887.63
2022-11-19T18:41:45.236Z,99889.56
2022-11-19T18:44:48.316Z,99893.13
2022-11-19T18:47:49.960Z,99893.72
2022-11-19T18:50:51.694Z,99894.75
2022-11-19T18:53:53.334Z,99889.66
2022-11-19T18:56:55.272Z,99890.97
2022-11-19T18:59:58.357Z,99883.63
2022-11-19T19:03:00.666Z,99898.97
2022-11-19T19:06:02.917Z,99903.09
2022-11-19T19:09:04.807Z,99906.09
2022-11-19T19:12:17.315Z,99914.59
2022-11-19T19:15:20.451Z,99912.03
2022-11-19T19:18:22.163Z,99922.09
2022-11-19T19:21:24.196Z,99917.47
2022-11-19T19:24:26.563Z,99916.09
2022-11-19T19:27:28.249Z,99918.13
2022-11-19T19:30:31.280Z,99924.94
2022-11-19T19:33:33.047Z,99921.59
2022-11-19T19:36:34.676Z,99920.28
2022-11-19T19:39:36.386Z,99911.84
2022-11-19T19:42:41.248Z,99912.91
2022-11-19T19:45:45.026Z,99913.19
2022-11-19T19:48:48.671Z,99920.97
2022-11-19T19:51:50.842Z,99923.84
2022-11-19T19:54:52.515Z,99926.09
2022-11-19T19:57:55.126Z,99930.69
2022-11-19T20:01:04.478Z,99915.66
2022-11-19T20:04:08.304Z,99928.47
2022-11-19T20:07:09.982Z,99924.97
2022-11-19T20:10:12.628Z,99924.34
2022-11-19T20:13:34.680Z,99926.78
2022-11-19T20:16:40.294Z,99926.97
2022-11-19T20:19:42.154Z,99929.81
2022-11-19T20:22:43.868Z,99928.38
2022-11-19T20:25:45.766Z,99929.97
2022-11-19T20:28:48.110Z,99941.47
2022-11-19T20:31:51.997Z,99937.38
2022-11-19T20:34:53.698Z,99934.25
2022-11-19T20:38:00.795Z,99936.84
2022-11-19T20:41:06.830Z,99940.91
2022-11-19T20:44:20.960Z,99948.56
2022-11-19T20:47:24.228Z,99940.56
2022-11-19T20:50:25.842Z,99936.88
2022-11-19T20:53:27.514Z,99943.16
2022-11-19T20:56:29.185Z,99947.19
2022-11-19T20:59:31.086Z,99950.72
2022-11-19T21:02:34.206Z,99956.06
2022-11-19T21:05:35.891Z,99959.53
2022-11-19T21:08:37.745Z,99941.19
2022-11-19T21:11:39.623Z,99943.38
2022-11-19T21:14:41.919Z,99944.47
2022-11-19T21:17:44.881Z,99943.06
2022-11-19T21:20:46.717Z,99944.34
2022-11-19T21:23:48.468Z,99941.44
2022-11-19T21:26:50.117Z,99945.66
2022-11-19T21:29:51.824Z,99955.69
2022-11-19T21:32:55.432Z,99948.81
2022-11-19T21:35:58.340Z,99950.28
2022-11-19T21:39:00.183Z,99949.44
2022-11-19T21:42:01.902Z,99944.47
2022-11-19T21:45:04.303Z,99936.47
2022-11-19T21:48:07.583Z,99947.63
2022-11-19T21:51:09.286Z,99940.34
2022-11-19T21:54:10.968Z,99949.25
2022-11-19T21:57:12.668Z,99945.94
2022-11-19T22:00:14.884Z,99943.16
2022-11-19T22:03:18.504Z,99949.66
2022-11-19T22:06:20.185Z,99944.78
2022-11-19T22:09:22.137Z,99945.13
2022-11-19T22:12:24.333Z,99949.22
2022-11-19T22:15:26.536Z,99943.88
2022-11-19T22:18:29.489Z,99942.34
2022-11-19T22:21:31.383Z,99938.47
2022-11-19T22:24:33.007Z,99938.69
2022-11-19T22:27:34.622Z,99934.97
2022-11-19T22:30:36.295Z,99939.38
2022-11-19T22:33:40.167Z,99936.44
2022-11-19T22:36:42.796Z,99934.19
2022-11-19T22:39:44.441Z,99938.28
2022-11-19T22:42:46.070Z,99940.53
2022-11-19T22:45:47.981Z,99934.34
2022-11-19T22:48:51.663Z,99939.94
2022-11-19T22:51:54.005Z,99939.06
2022-11-19T22:54:55.650Z,99930.94
2022-11-19T22:57:57.340Z,99937.75
2022-11-19T23:00:59.201Z,99936.69
2022-11-19T23:04:05.992Z,99937.97
2022-11-19T23:07:08.463Z,99933.56
2022-11-19T23:10:10.180Z,99932.41
2022-11-19T23:13:31.270Z,99931.66
2022-11-19T23:16:32.984Z,99934.13
2022-11-19T23:19:37.797Z,99932.59
2022-11-19T23:22:39.431Z,99937.41
2022-11-19T23:25:41.137Z,99935.91
2022-11-19T23:28:43.115Z,99935.69
2022-11-19T23:31:44.846Z,99926.66
2022-11-19T23:34:47.991Z,99922.06
2022-11-19T23:37:49.650Z,99922.59
2022-11-19T23:40:57.557Z,99928.72
2022-11-19T23:43:59.290Z,99920.34
2022-11-19T23:47:00.909Z,99927.53
2022-11-19T23:50:04.602Z,99929.00
2022-11-19T23:53:06.266Z,99934.22
2022-11-19T23:56:08.154Z,99929.84
2022-11-19T23:59:09.829Z,99923.34
